Time;durP1;ratioP1;P1;durP2;ratioP2;P2;SDS_P1;SDS_P2;PMS_P1;PMS_P2;Temp;Humidity;BMP_temperature;BMP_pressure;BME280_temperature;BME280_humidity;BME280_pressure;Samples;Min_cycle;Max_cycle;Signal;HPM_P1;HPM_P2
2022/02/24 00:00:54;;;;;;;77.80;34.03;;;;;;;;;;753425;184;616010;-68
2022/02/24 00:03:20;;;;;;;89.13;40.30;;;;;;;;;;753814;184;632970;-69
2022/02/24 00:05:45;;;;;;;69.87;33.40;;;;;;;;;;761004;183;634426;-69
2022/02/24 00:08:12;;;;;;;52.47;25.07;;;;;;;;;;766657;183;623817;-69
2022/02/24 00:10:37;;;;;;;45.00;20.50;;;;;;;;;;753968;183;624734;-69
2022/02/24 00:13:03;;;;;;;43.83;21.60;;;;;;;;;;767804;184;620105;-69
2022/02/24 00:15:29;;;;;;;41.50;20.70;;;;;;;;;;762691;183;645215;-69
2022/02/24 00:17:55;;;;;;;41.87;22.50;;;;;;;;;;765982;183;624792;-69
2022/02/24 00:20:20;;;;;;;45.77;24.87;;;;;;;;;;749881;183;631544;-69
2022/02/24 00:22:46;;;;;;;45.90;21.27;;;;;;;;;;759874;184;614552;-69
2022/02/24 00:25:12;;;;;;;51.10;22.27;;;;;;;;;;751731;184;625789;-69
2022/02/24 00:27:38;;;;;;;68.67;31.83;;;;;;;;;;753158;184;626712;-71
2022/02/24 00:30:04;;;;;;;46.60;23.93;;;;;;;;;;758488;184;628060;-71
2022/02/24 00:32:30;;;;;;;60.47;28.47;;;;;;;;;;746878;184;636370;-70
2022/02/24 00:34:56;;;;;;;62.10;29.97;;;;;;;;;;757277;183;629116;-71
2022/02/24 00:37:22;;;;;;;70.27;34.37;;;;;;;;;;764378;184;632813;-68
2022/02/24 00:39:47;;;;;;;49.70;25.20;;;;;;;;;;753070;183;621363;-68
2022/02/24 00:42:13;;;;;;;49.20;24.43;;;;;;;;;;764801;183;628341;-68
2022/02/24 00:44:39;;;;;;;50.67;26.50;;;;;;;;;;763347;184;629912;-68
2022/02/24 00:47:05;;;;;;;52.90;28.47;;;;;;;;;;744661;183;630251;-68
2022/02/24 00:49:31;;;;;;;56.57;28.17;;;;;;;;;;757412;184;630529;-68
2022/02/24 00:51:57;;;;;;;65.30;30.08;;;;;;;;;;745464;185;1621315;-68
2022/02/24 00:54:23;;;;;;;53.97;29.93;;;;;;;;;;761094;184;618540;-68
2022/02/24 00:56:48;;;;;;;54.90;28.30;;;;;;;;;;754054;184;627312;-68
2022/02/24 00:59:14;;;;;;;49.60;26.80;;;;;;;;;;754189;185;632724;-68
2022/02/24 01:01:41;;;;;;;48.10;26.53;;;;;;;;;;751974;183;622657;-68
2022/02/24 01:04:06;;;;;;;75.43;33.53;;;;;;;;;;756425;183;638122;-69
2022/02/24 01:06:32;;;;;;;72.90;36.20;;;;;;;;;;751658;184;630448;-68
2022/02/24 01:08:58;;;;;;;76.63;39.10;;;;;;;;;;757306;183;643062;-68
2022/02/24 01:11:24;;;;;;;93.90;35.03;;;;;;;;;;753843;184;631613;-68
2022/02/24 01:13:49;;;;;;;60.00;31.60;;;;;;;;;;753584;184;628136;-68
2022/02/24 01:16:15;;;;;;;62.40;33.00;;;;;;;;;;753203;184;626011;-68
2022/02/24 01:18:41;;;;;;;45.77;26.03;;;;;;;;;;753593;184;632537;-68
2022/02/24 01:21:07;;;;;;;41.07;26.77;;;;;;;;;;750912;184;620778;-68
2022/02/24 01:23:33;;;;;;;45.70;26.43;;;;;;;;;;750516;184;635449;-68
2022/02/24 01:25:59;;;;;;;75.30;28.97;;;;;;;;;;769990;183;628732;-68
2022/02/24 01:28:24;;;;;;;52.10;27.00;;;;;;;;;;751067;185;638559;-68
2022/02/24 01:30:50;;;;;;;42.50;26.20;;;;;;;;;;751313;184;625842;-68
2022/02/24 01:33:16;;;;;;;58.80;28.10;;;;;;;;;;756695;184;630618;-68
2022/02/24 01:35:42;;;;;;;42.80;25.50;;;;;;;;;;756848;183;621852;-68
2022/02/24 01:38:08;;;;;;;43.03;25.67;;;;;;;;;;763941;183;637569;-68
2022/02/24 01:40:34;;;;;;;45.97;26.20;;;;;;;;;;760688;184;872164;-68
2022/02/24 01:43:00;;;;;;;38.90;22.53;;;;;;;;;;769792;183;618569;-67
2022/02/24 01:45:25;;;;;;;32.00;19.10;;;;;;;;;;756981;184;669850;-67
2022/02/24 01:47:51;;;;;;;30.10;19.33;;;;;;;;;;766481;184;631231;-68
2022/02/24 01:50:17;;;;;;;33.63;18.70;;;;;;;;;;754652;185;629962;-68
2022/02/24 01:52:44;;;;;;;38.60;23.33;;;;;;;;;;748435;185;633962;-67
2022/02/24 01:55:09;;;;;;;51.23;26.03;;;;;;;;;;758617;184;628299;-67
2022/02/24 01:57:35;;;;;;;37.77;21.60;;;;;;;;;;756487;184;632082;-68
2022/02/24 02:00:01;;;;;;;30.50;17.40;;;;;;;;;;761480;184;616968;-68
2022/02/24 02:02:26;;;;;;;47.50;25.73;;;;;;;;;;749874;184;629839;-68
2022/02/24 02:04:53;;;;;;;43.85;25.77;;;;;;;;;;753009;184;629096;-67
2022/02/24 02:07:19;;;;;;;58.10;28.80;;;;;;;;;;763247;181;623227;-67
2022/02/24 02:09:45;;;;;;;41.47;24.87;;;;;;;;;;753301;184;629759;-68
2022/02/24 02:12:10;;;;;;;50.80;24.70;;;;;;;;;;762433;184;829768;-67
2022/02/24 02:14:36;;;;;;;38.93;22.40;;;;;;;;;;766536;184;626161;-67
2022/02/24 02:17:02;;;;;;;32.23;19.03;;;;;;;;;;753578;184;767037;-67
2022/02/24 02:19:28;;;;;;;35.60;17.90;;;;;;;;;;756768;183;628389;-67
2022/02/24 02:21:54;;;;;;;33.70;17.67;;;;;;;;;;758719;183;625649;-67
2022/02/24 02:24:20;;;;;;;33.10;17.60;;;;;;;;;;759535;183;624709;-67
2022/02/24 02:26:49;;;;;;;30.27;16.20;;;;;;;;;;766714;183;636918;-67
2022/02/24 02:29:12;;;;;;;23.43;15.63;;;;;;;;;;768334;183;637942;-67
2022/02/24 02:31:38;;;;;;;22.40;15.67;;;;;;;;;;749237;183;629436;-67
2022/02/24 02:34:05;;;;;;;33.00;18.07;;;;;;;;;;750076;183;645129;-67
2022/02/24 02:36:31;;;;;;;41.43;21.57;;;;;;;;;;750315;183;631698;-68
2022/02/24 02:38:57;;;;;;;52.90;25.53;;;;;;;;;;757344;183;625122;-67
2022/02/24 02:41:23;;;;;;;47.47;25.13;;;;;;;;;;762200;184;636473;-68
2022/02/24 02:43:49;;;;;;;41.63;23.47;;;;;;;;;;751076;184;628905;-67
2022/02/24 02:46:14;;;;;;;131.97;60.20;;;;;;;;;;760854;184;622052;-67
2022/02/24 02:48:40;;;;;;;61.03;35.47;;;;;;;;;;765011;184;629845;-68
2022/02/24 02:51:07;;;;;;;56.50;28.80;;;;;;;;;;764567;184;649248;-67
2022/02/24 02:53:32;;;;;;;61.20;35.00;;;;;;;;;;767888;183;625214;-68
2022/02/24 02:55:58;;;;;;;48.30;25.33;;;;;;;;;;763050;183;674562;-68
2022/02/24 02:58:24;;;;;;;45.30;25.40;;;;;;;;;;764302;184;627225;-68
2022/02/24 03:00:50;;;;;;;131.97;50.17;;;;;;;;;;765507;180;619877;-67
2022/02/24 03:03:15;;;;;;;51.73;28.53;;;;;;;;;;761192;180;626197;-68
2022/02/24 03:05:41;;;;;;;46.27;24.67;;;;;;;;;;753599;184;624339;-68
2022/02/24 03:08:07;;;;;;;44.57;24.90;;;;;;;;;;754502;184;617985;-67
2022/02/24 03:10:33;;;;;;;40.10;23.30;;;;;;;;;;760314;184;614757;-68
2022/02/24 03:12:59;;;;;;;47.53;22.63;;;;;;;;;;755296;184;632343;-68
2022/02/24 03:15:25;;;;;;;41.83;21.93;;;;;;;;;;759550;184;627468;-68
2022/02/24 03:17:50;;;;;;;44.53;23.20;;;;;;;;;;760535;184;621889;-68
2022/02/24 03:20:16;;;;;;;44.70;27.20;;;;;;;;;;755548;184;783915;-68
2022/02/24 03:22:42;;;;;;;61.87;28.07;;;;;;;;;;765358;184;625730;-68
2022/02/24 03:25:08;;;;;;;58.70;27.25;;;;;;;;;;760256;184;627401;-66
2022/02/24 03:27:34;;;;;;;47.77;24.00;;;;;;;;;;764136;180;629523;-68
2022/02/24 03:30:00;;;;;;;61.23;28.80;;;;;;;;;;757433;182;638231;-67
2022/02/24 03:32:26;;;;;;;47.00;24.87;;;;;;;;;;767397;183;623744;-68
2022/02/24 03:34:52;;;;;;;43.00;25.70;;;;;;;;;;759118;183;619499;-68
2022/02/24 03:37:18;;;;;;;37.80;23.73;;;;;;;;;;761479;183;617177;-68
2022/02/24 03:39:44;;;;;;;55.33;27.37;;;;;;;;;;763829;184;635797;-68
2022/02/24 03:42:09;;;;;;;36.17;21.30;;;;;;;;;;757056;183;615951;-67
2022/02/24 03:44:35;;;;;;;32.07;21.10;;;;;;;;;;753649;183;616581;-67
2022/02/24 03:47:01;;;;;;;43.33;22.20;;;;;;;;;;761942;184;627076;-68
2022/02/24 03:49:27;;;;;;;41.43;21.30;;;;;;;;;;760622;183;618148;-66
2022/02/24 03:51:53;;;;;;;36.03;21.93;;;;;;;;;;754897;183;622411;-68
2022/02/24 03:54:19;;;;;;;39.87;22.10;;;;;;;;;;762432;184;624941;-68
2022/02/24 03:56:44;;;;;;;43.20;24.70;;;;;;;;;;756931;184;621193;-68
2022/02/24 03:59:10;;;;;;;37.63;19.67;;;;;;;;;;753627;183;626002;-67
2022/02/24 04:01:36;;;;;;;59.80;32.70;;;;;;;;;;754293;183;678409;-67
2022/02/24 04:04:02;;;;;;;52.23;27.17;;;;;;;;;;755554;184;638763;-68
2022/02/24 04:06:28;;;;;;;48.73;29.47;;;;;;;;;;760622;184;618895;-68
2022/02/24 04:08:54;;;;;;;50.70;27.07;;;;;;;;;;754300;184;628629;-68
2022/02/24 04:11:20;;;;;;;250.67;91.40;;;;;;;;;;756037;184;658874;-68
2022/02/24 04:13:45;;;;;;;45.37;26.67;;;;;;;;;;756649;184;623775;-68
2022/02/24 04:16:11;;;;;;;43.23;24.50;;;;;;;;;;754234;184;622980;-68
2022/02/24 04:18:37;;;;;;;48.60;26.77;;;;;;;;;;756893;184;625123;-67
2022/02/24 04:21:03;;;;;;;44.77;26.37;;;;;;;;;;757333;184;620613;-68
2022/02/24 04:23:29;;;;;;;43.13;26.20;;;;;;;;;;751600;184;667114;-69
2022/02/24 04:25:55;;;;;;;43.20;26.27;;;;;;;;;;751390;185;635252;-68
2022/02/24 04:28:20;;;;;;;45.00;25.80;;;;;;;;;;752481;184;642476;-68
2022/02/24 04:30:46;;;;;;;37.43;20.83;;;;;;;;;;764009;184;638456;-68
2022/02/24 04:33:12;;;;;;;34.23;20.40;;;;;;;;;;753178;184;619234;-68
2022/02/24 04:35:38;;;;;;;49.63;25.70;;;;;;;;;;750503;184;623892;-68
2022/02/24 04:38:04;;;;;;;43.43;20.37;;;;;;;;;;762443;184;619407;-68
2022/02/24 04:40:30;;;;;;;34.43;20.70;;;;;;;;;;756864;184;637661;-68
2022/02/24 04:42:56;;;;;;;34.00;21.20;;;;;;;;;;759106;182;620718;-68
2022/02/24 04:45:21;;;;;;;36.83;22.50;;;;;;;;;;761986;183;616644;-68
2022/02/24 04:47:47;;;;;;;44.93;27.73;;;;;;;;;;755799;183;626507;-68
2022/02/24 04:50:13;;;;;;;53.67;29.80;;;;;;;;;;758084;183;620631;-68
2022/02/24 04:52:39;;;;;;;43.00;24.00;;;;;;;;;;757313;184;634982;-67
2022/02/24 04:55:05;;;;;;;61.50;31.77;;;;;;;;;;763150;183;629751;-68
2022/02/24 04:57:31;;;;;;;61.43;29.67;;;;;;;;;;757534;183;632925;-68
2022/02/24 04:59:57;;;;;;;53.53;24.77;;;;;;;;;;752134;184;626712;-68
2022/02/24 05:02:23;;;;;;;48.83;24.60;;;;;;;;;;760001;184;628679;-68
2022/02/24 05:04:49;;;;;;;43.37;22.33;;;;;;;;;;757354;184;628417;-68
2022/02/24 05:07:14;;;;;;;50.93;25.97;;;;;;;;;;756629;184;643657;-68
2022/02/24 05:09:40;;;;;;;44.00;27.27;;;;;;;;;;758094;184;622660;-68
2022/02/24 05:12:06;;;;;;;44.83;26.90;;;;;;;;;;756952;184;640838;-68
2022/02/24 05:14:32;;;;;;;48.07;25.87;;;;;;;;;;754681;184;633291;-69
2022/02/24 05:16:58;;;;;;;46.93;25.37;;;;;;;;;;757714;184;637640;-68
2022/02/24 05:19:24;;;;;;;42.60;25.50;;;;;;;;;;762674;181;621600;-69
2022/02/24 05:21:49;;;;;;;54.00;29.80;;;;;;;;;;753654;185;647102;-68
2022/02/24 05:24:15;;;;;;;47.62;29.00;;;;;;;;;;753358;185;634962;-68
2022/02/24 05:26:41;;;;;;;50.33;27.63;;;;;;;;;;757307;185;630842;-68
2022/02/24 05:29:07;;;;;;;57.55;29.60;;;;;;;;;;753846;185;627513;-67
2022/02/24 05:31:33;;;;;;;49.70;28.93;;;;;;;;;;752825;184;638595;-69
2022/02/24 05:33:59;;;;;;;51.37;28.63;;;;;;;;;;759997;184;626086;-68
2022/02/24 05:36:26;;;;;;;50.80;32.57;;;;;;;;;;753278;184;616277;-67
2022/02/24 05:38:54;;;;;;;52.07;32.17;;;;;;;;;;749785;184;652069;-69
2022/02/24 05:41:17;;;;;;;58.80;30.27;;;;;;;;;;749568;187;626575;-69
2022/02/24 05:43:43;;;;;;;69.23;36.63;;;;;;;;;;751018;184;658502;-69
2022/02/24 05:46:09;;;;;;;77.70;38.60;;;;;;;;;;755193;184;627206;-68
2022/02/24 05:48:35;;;;;;;80.57;40.60;;;;;;;;;;760518;184;625603;-68
2022/02/24 05:51:01;;;;;;;83.93;39.30;;;;;;;;;;753548;184;641464;-69
2022/02/24 05:53:27;;;;;;;77.55;39.22;;;;;;;;;;762835;181;634582;-68
2022/02/24 05:55:52;;;;;;;79.63;36.60;;;;;;;;;;754787;183;641369;-69
2022/02/24 05:58:19;;;;;;;69.43;37.40;;;;;;;;;;757656;184;635030;-69
2022/02/24 06:00:44;;;;;;;66.73;35.53;;;;;;;;;;752196;183;663054;-68
2022/02/24 06:03:10;;;;;;;50.37;30.60;;;;;;;;;;767030;183;639299;-68
2022/02/24 06:05:36;;;;;;;56.03;33.90;;;;;;;;;;767807;183;634687;-69
2022/02/24 06:08:02;;;;;;;58.47;28.37;;;;;;;;;;753900;184;631184;-69
2022/02/24 06:10:27;;;;;;;68.90;29.80;;;;;;;;;;753008;184;628845;-68
2022/02/24 06:12:57;;;;;;;93.23;43.30;;;;;;;;;;753412;184;632514;-69
2022/02/24 06:15:19;;;;;;;54.53;26.77;;;;;;;;;;749549;183;639863;-68
2022/02/24 06:17:45;;;;;;;92.97;37.30;;;;;;;;;;753656;183;626014;-68
2022/02/24 06:20:11;;;;;;;52.40;25.60;;;;;;;;;;754126;185;630757;-69
2022/02/24 06:22:37;;;;;;;41.80;22.87;;;;;;;;;;765379;183;628672;-70
2022/02/24 06:25:03;;;;;;;35.93;20.27;;;;;;;;;;751883;183;625018;-68
2022/02/24 06:27:29;;;;;;;48.93;24.33;;;;;;;;;;757039;183;649489;-68
2022/02/24 06:29:54;;;;;;;67.80;32.80;;;;;;;;;;756945;184;690703;-68
2022/02/24 06:32:20;;;;;;;44.80;24.77;;;;;;;;;;752233;186;626983;-68
2022/02/24 06:34:46;;;;;;;44.60;24.00;;;;;;;;;;752391;185;635655;-68
2022/02/24 06:37:12;;;;;;;37.63;22.03;;;;;;;;;;756441;184;627067;-68
2022/02/24 06:39:38;;;;;;;37.37;21.33;;;;;;;;;;752555;184;730138;-68
2022/02/24 06:42:04;;;;;;;39.73;22.13;;;;;;;;;;753011;184;625217;-68
2022/02/24 06:44:31;;;;;;;39.90;23.43;;;;;;;;;;752399;184;634163;-68
2022/02/24 06:46:56;;;;;;;38.60;22.43;;;;;;;;;;756588;184;619499;-67
2022/02/24 06:49:22;;;;;;;44.93;23.93;;;;;;;;;;750254;184;635395;-68
2022/02/24 06:51:50;;;;;;;46.60;27.05;;;;;;;;;;757676;183;628877;-66
2022/02/24 06:54:14;;;;;;;51.93;28.80;;;;;;;;;;756443;185;623294;-67
2022/02/24 06:56:40;;;;;;;47.00;30.90;;;;;;;;;;755586;183;644121;-67
2022/02/24 06:59:06;;;;;;;56.20;35.80;;;;;;;;;;760551;183;630727;-67
2022/02/24 07:01:32;;;;;;;60.13;28.83;;;;;;;;;;760552;184;627012;-66
2022/02/24 07:03:57;;;;;;;58.70;32.58;;;;;;;;;;758270;184;635035;-66
2022/02/24 07:06:24;;;;;;;57.17;31.53;;;;;;;;;;758603;183;642953;-64
2022/02/24 07:08:50;;;;;;;55.33;32.83;;;;;;;;;;754435;184;631220;-62
2022/02/24 07:11:16;;;;;;;59.60;31.50;;;;;;;;;;761518;183;633793;-62
2022/02/24 07:13:41;;;;;;;62.90;36.00;;;;;;;;;;760929;184;628175;-62
2022/02/24 07:16:07;;;;;;;61.57;35.50;;;;;;;;;;759915;184;642634;-62
2022/02/24 07:18:33;;;;;;;155.93;69.20;;;;;;;;;;755039;186;633994;-62
2022/02/24 07:20:59;;;;;;;103.77;51.30;;;;;;;;;;760488;184;622193;-62
2022/02/24 07:23:25;;;;;;;109.33;54.40;;;;;;;;;;751921;184;615022;-62
2022/02/24 07:25:51;;;;;;;76.80;40.50;;;;;;;;;;760914;185;628994;-61
2022/02/24 07:28:16;;;;;;;85.80;47.23;;;;;;;;;;754072;183;621175;-61
2022/02/24 07:30:42;;;;;;;78.57;41.90;;;;;;;;;;755462;184;615115;-61
2022/02/24 07:33:08;;;;;;;127.67;54.13;;;;;;;;;;755379;183;630207;-60
2022/02/24 07:35:34;;;;;;;107.13;52.70;;;;;;;;;;758086;183;632897;-61
2022/02/24 07:38:00;;;;;;;81.93;42.33;;;;;;;;;;761446;184;632149;-61
2022/02/24 07:40:26;;;;;;;106.07;47.83;;;;;;;;;;754123;183;626783;-60
2022/02/24 07:42:52;;;;;;;99.23;46.90;;;;;;;;;;757561;184;613619;-61
2022/02/24 07:45:17;;;;;;;88.23;41.90;;;;;;;;;;748070;184;622921;-61
2022/02/24 07:47:43;;;;;;;85.87;42.10;;;;;;;;;;755232;184;624911;-62
2022/02/24 07:50:13;;;;;;;82.53;41.70;;;;;;;;;;767404;184;623873;-61
2022/02/24 07:52:35;;;;;;;70.17;41.30;;;;;;;;;;763715;184;628296;-62
2022/02/24 07:55:01;;;;;;;87.13;43.60;;;;;;;;;;758561;184;631093;-62
2022/02/24 07:57:27;;;;;;;82.47;38.27;;;;;;;;;;757022;184;643612;-62
2022/02/24 07:59:52;;;;;;;69.63;30.87;;;;;;;;;;761405;183;630278;-62
2022/02/24 08:02:18;;;;;;;74.80;37.23;;;;;;;;;;762506;184;610964;-63
2022/02/24 08:04:45;;;;;;;64.10;32.53;;;;;;;;;;751722;184;622871;-63
2022/02/24 08:07:10;;;;;;;51.90;27.77;;;;;;;;;;755696;183;624568;-62
2022/02/24 08:09:36;;;;;;;43.83;22.00;;;;;;;;;;750292;184;615210;-62
2022/02/24 08:14:33;;;;;;;36.00;22.03;;;;;;;;;;753067;183;626734;-62
2022/02/24 08:16:59;;;;;;;29.57;19.13;;;;;;;;;;752767;183;637055;-61
2022/02/24 08:19:25;;;;;;;34.80;20.87;;;;;;;;;;755534;183;628392;-61
2022/02/24 08:21:51;;;;;;;46.67;17.50;;;;;;;;;;755907;185;635943;-59
2022/02/24 08:24:17;;;;;;;36.87;23.10;;;;;;;;;;760407;183;617989;-60
2022/02/24 08:26:43;;;;;;;26.83;10.43;;;;;;;;;;767019;183;630181;-60
2022/02/24 08:29:09;;;;;;;24.33;8.80;;;;;;;;;;765579;183;632781;-59
2022/02/24 08:31:34;;;;;;;13.97;8.23;;;;;;;;;;765169;184;629587;-59
2022/02/24 08:34:01;;;;;;;20.00;9.90;;;;;;;;;;757545;184;621137;-59
2022/02/24 08:36:27;;;;;;;17.27;10.80;;;;;;;;;;760870;183;632966;-60
2022/02/24 08:38:53;;;;;;;19.97;7.83;;;;;;;;;;763077;184;624692;-59
2022/02/24 08:41:19;;;;;;;8.43;5.10;;;;;;;;;;763034;184;636785;-60
2022/02/24 08:43:44;;;;;;;13.80;4.23;;;;;;;;;;760200;184;640223;-60
2022/02/24 08:46:10;;;;;;;12.00;3.67;;;;;;;;;;756081;184;614323;-61
2022/02/24 08:48:36;;;;;;;16.93;3.13;;;;;;;;;;752618;183;633168;-60
2022/02/24 08:51:02;;;;;;;8.53;2.97;;;;;;;;;;762084;184;858932;-60
2022/02/24 08:53:28;;;;;;;5.27;2.30;;;;;;;;;;763204;184;632552;-60
2022/02/24 08:55:54;;;;;;;7.50;3.33;;;;;;;;;;758041;185;624953;-61
2022/02/24 08:58:19;;;;;;;14.37;2.43;;;;;;;;;;748242;184;645058;-60
2022/02/24 09:00:47;;;;;;;7.50;2.13;;;;;;;;;;750821;184;655728;-60
2022/02/24 09:03:12;;;;;;;5.90;2.67;;;;;;;;;;761917;184;616916;-60
2022/02/24 09:05:38;;;;;;;7.93;2.40;;;;;;;;;;755857;184;635599;-60
2022/02/24 09:08:04;;;;;;;6.50;2.50;;;;;;;;;;763690;184;620373;-60
2022/02/24 09:10:30;;;;;;;5.83;2.60;;;;;;;;;;766876;184;627989;-60
2022/02/24 09:12:55;;;;;;;9.03;2.50;;;;;;;;;;762585;184;637077;-60
2022/02/24 09:15:21;;;;;;;5.07;2.30;;;;;;;;;;758716;184;639203;-60
2022/02/24 09:17:48;;;;;;;4.37;1.87;;;;;;;;;;750681;185;615803;-60
2022/02/24 09:20:13;;;;;;;7.63;2.20;;;;;;;;;;763630;182;638243;-60
2022/02/24 09:22:39;;;;;;;4.60;2.43;;;;;;;;;;757091;184;629577;-60
2022/02/24 09:25:05;;;;;;;4.70;1.90;;;;;;;;;;765620;184;626591;-60
2022/02/24 09:27:31;;;;;;;7.73;2.07;;;;;;;;;;762573;184;683651;-60
2022/02/24 09:29:57;;;;;;;3.50;2.40;;;;;;;;;;754694;185;635945;-60
2022/02/24 09:32:22;;;;;;;6.70;2.60;;;;;;;;;;756036;184;687309;-60
2022/02/24 09:34:48;;;;;;;4.83;2.20;;;;;;;;;;755406;183;619268;-60
2022/02/24 09:37:14;;;;;;;5.03;2.40;;;;;;;;;;754576;183;625035;-60
2022/02/24 09:39:40;;;;;;;7.80;2.47;;;;;;;;;;753979;184;637980;-60
2022/02/24 09:42:06;;;;;;;4.57;2.87;;;;;;;;;;755386;183;634716;-60
2022/02/24 09:44:31;;;;;;;6.20;2.20;;;;;;;;;;753351;184;623931;-60
2022/02/24 09:46:58;;;;;;;5.73;2.10;;;;;;;;;;752317;184;627945;-60
2022/02/24 09:49:24;;;;;;;6.00;3.00;;;;;;;;;;761951;184;628303;-60
2022/02/24 09:51:50;;;;;;;6.60;2.87;;;;;;;;;;755825;184;631097;-60
2022/02/24 09:54:16;;;;;;;7.93;2.90;;;;;;;;;;762352;184;618410;-60
2022/02/24 09:56:43;;;;;;;6.37;2.97;;;;;;;;;;759235;184;635389;-60
2022/02/24 09:59:08;;;;;;;5.97;2.60;;;;;;;;;;763063;184;625978;-61
2022/02/24 10:01:33;;;;;;;6.80;2.67;;;;;;;;;;755610;184;642055;-60
2022/02/24 10:04:00;;;;;;;4.93;2.30;;;;;;;;;;756988;184;637828;-60
2022/02/24 10:06:31;;;;;;;6.17;2.60;;;;;;;;;;766945;184;619174;-60
2022/02/24 10:08:57;;;;;;;6.27;3.47;;;;;;;;;;756650;184;619334;-60
2022/02/24 10:11:23;;;;;;;5.63;2.17;;;;;;;;;;752939;184;646205;-60
2022/02/24 10:13:55;;;;;;;5.63;2.80;;;;;;;;;;748315;184;631318;-60
2022/02/24 10:16:20;;;;;;;6.10;2.30;;;;;;;;;;752121;183;619102;-60
2022/02/24 10:18:46;;;;;;;4.50;2.30;;;;;;;;;;757243;184;635082;-62
2022/02/24 10:21:12;;;;;;;6.13;2.90;;;;;;;;;;765169;184;635060;-60
2022/02/24 10:23:38;;;;;;;10.07;2.77;;;;;;;;;;757962;184;627282;-60
2022/02/24 10:26:04;;;;;;;6.47;2.60;;;;;;;;;;756383;183;636279;-60
2022/02/24 10:28:30;;;;;;;5.23;2.73;;;;;;;;;;755006;184;629786;-60
2022/02/24 10:30:56;;;;;;;6.30;2.83;;;;;;;;;;754596;184;641081;-60
2022/02/24 10:33:24;;;;;;;7.63;3.37;;;;;;;;;;765752;184;626814;-60
2022/02/24 10:35:50;;;;;;;6.03;2.60;;;;;;;;;;758686;184;626548;-60
2022/02/24 10:38:16;;;;;;;7.03;2.13;;;;;;;;;;757524;185;623941;-60
2022/02/24 10:40:43;;;;;;;5.40;2.40;;;;;;;;;;762205;184;786005;-60
2022/02/24 10:43:13;;;;;;;7.23;2.30;;;;;;;;;;757687;183;620707;-60
2022/02/24 10:45:39;;;;;;;9.97;3.03;;;;;;;;;;756809;183;627229;-61
2022/02/24 10:48:06;;;;;;;5.73;2.10;;;;;;;;;;754586;183;632339;-60
2022/02/24 10:50:37;;;;;;;4.50;2.70;;;;;;;;;;756675;183;629266;-60
2022/02/24 10:53:05;;;;;;;12.20;2.63;;;;;;;;;;757648;184;632311;-60
2022/02/24 10:55:31;;;;;;;6.40;3.13;;;;;;;;;;755543;183;624005;-60
2022/02/24 10:58:04;;;;;;;5.53;2.00;;;;;;;;;;749653;183;619221;-60
2022/02/24 11:00:31;;;;;;;4.03;2.60;;;;;;;;;;760573;186;647730;-61
2022/02/24 11:02:56;;;;;;;5.28;2.42;;;;;;;;;;749582;184;632923;-63
2022/02/24 11:05:22;;;;;;;6.20;2.90;;;;;;;;;;752430;184;641059;-60
2022/02/24 11:07:48;;;;;;;7.23;2.70;;;;;;;;;;753588;184;620263;-60
2022/02/24 11:10:14;;;;;;;6.73;2.30;;;;;;;;;;755808;186;625224;-60
2022/02/24 11:12:39;;;;;;;12.93;4.03;;;;;;;;;;756225;183;628573;-61
2022/02/24 11:15:05;;;;;;;4.80;2.20;;;;;;;;;;752002;184;625624;-60
2022/02/24 11:17:31;;;;;;;3.53;2.00;;;;;;;;;;756696;184;615791;-60
2022/02/24 11:19:57;;;;;;;8.23;3.20;;;;;;;;;;763095;183;615196;-61
2022/02/24 11:22:25;;;;;;;10.53;3.47;;;;;;;;;;767155;184;627322;-61
2022/02/24 11:24:51;;;;;;;3.87;2.63;;;;;;;;;;766495;184;624976;-61
2022/02/24 11:27:16;;;;;;;5.33;3.00;;;;;;;;;;756387;184;637958;-60
2022/02/24 11:29:45;;;;;;;5.07;2.30;;;;;;;;;;751545;184;616933;-60
2022/02/24 11:32:11;;;;;;;4.70;2.37;;;;;;;;;;764695;184;631287;-60
2022/02/24 11:34:43;;;;;;;7.80;2.60;;;;;;;;;;759606;184;626041;-60
2022/02/24 11:37:14;;;;;;;10.60;3.00;;;;;;;;;;753971;184;620060;-61
2022/02/24 11:39:44;;;;;;;6.47;2.93;;;;;;;;;;753573;185;640883;-61
2022/02/24 11:42:10;;;;;;;5.63;2.93;;;;;;;;;;752124;184;630330;-60
2022/02/24 11:44:36;;;;;;;5.63;2.83;;;;;;;;;;762873;184;627160;-60
2022/02/24 11:47:02;;;;;;;8.27;2.77;;;;;;;;;;763645;184;631937;-60
2022/02/24 11:49:34;;;;;;;5.90;3.10;;;;;;;;;;755302;184;624954;-60
2022/02/24 11:52:06;;;;;;;4.47;2.60;;;;;;;;;;755534;182;629203;-59
2022/02/24 11:54:36;;;;;;;4.40;2.50;;;;;;;;;;755664;183;615887;-60
2022/02/24 11:57:08;;;;;;;6.10;2.80;;;;;;;;;;750274;183;636195;-61
2022/02/24 11:59:34;;;;;;;10.03;2.87;;;;;;;;;;753078;183;619130;-60
2022/02/24 12:02:00;;;;;;;5.90;2.97;;;;;;;;;;763538;184;626692;-60
2022/02/24 12:04:27;;;;;;;6.00;2.90;;;;;;;;;;770410;184;627931;-61
2022/02/24 12:06:52;;;;;;;7.70;2.50;;;;;;;;;;767589;183;637553;-60
2022/02/24 12:09:20;;;;;;;5.07;2.63;;;;;;;;;;758657;184;757771;-60
2022/02/24 12:11:50;;;;;;;5.30;2.97;;;;;;;;;;756490;185;622902;-60
2022/02/24 12:14:31;;;;;;;5.40;2.87;;;;;;;;;;755783;183;620961;-61
2022/02/24 12:17:12;;;;;;;5.60;2.93;;;;;;;;;;761488;183;627077;-60
2022/02/24 12:19:37;;;;;;;6.20;3.13;;;;;;;;;;755682;183;625182;-60
2022/02/24 12:22:10;;;;;;;6.77;3.00;;;;;;;;;;756638;186;622487;-60
2022/02/24 12:24:36;;;;;;;7.70;3.10;;;;;;;;;;752795;184;627219;-60
2022/02/24 12:27:01;;;;;;;5.50;3.30;;;;;;;;;;759976;183;628893;-60
2022/02/24 12:29:39;;;;;;;7.87;2.77;;;;;;;;;;756005;184;616637;-60
2022/02/24 12:32:04;;;;;;;6.53;2.37;;;;;;;;;;765199;184;632918;-60
2022/02/24 12:34:30;;;;;;;4.40;2.63;;;;;;;;;;759674;184;637721;-60
2022/02/24 12:37:01;;;;;;;6.73;3.00;;;;;;;;;;760212;185;636530;-61
2022/02/24 12:39:27;;;;;;;4.47;2.60;;;;;;;;;;759999;183;647091;-60
2022/02/24 12:41:53;;;;;;;10.83;3.10;;;;;;;;;;763583;184;628463;-60
2022/02/24 12:44:19;;;;;;;5.63;3.20;;;;;;;;;;755801;184;626785;-60
2022/02/24 12:46:45;;;;;;;6.40;2.90;;;;;;;;;;758785;184;643137;-60
2022/02/24 12:49:10;;;;;;;4.77;2.90;;;;;;;;;;744824;185;627244;-60
2022/02/24 12:51:36;;;;;;;5.57;2.80;;;;;;;;;;753985;185;633950;-60
2022/02/24 12:54:02;;;;;;;4.17;2.00;;;;;;;;;;760471;184;616857;-60
2022/02/24 12:56:28;;;;;;;5.90;2.57;;;;;;;;;;762783;184;632435;-61
2022/02/24 12:58:54;;;;;;;6.37;2.63;;;;;;;;;;757642;184;619344;-60
2022/02/24 13:01:20;;;;;;;5.03;2.73;;;;;;;;;;754257;184;636651;-59
2022/02/24 13:03:46;;;;;;;5.60;3.00;;;;;;;;;;758728;184;634895;-60
2022/02/24 13:06:13;;;;;;;13.63;3.13;;;;;;;;;;760885;183;627075;-59
2022/02/24 13:11:09;;;;;;;6.83;2.60;;;;;;;;;;756051;183;618312;-59
2022/02/24 13:13:34;;;;;;;4.60;2.70;;;;;;;;;;755002;183;616496;-59
2022/02/24 13:16:00;;;;;;;4.10;2.17;;;;;;;;;;749409;183;630500;-61
2022/02/24 13:18:27;;;;;;;8.00;2.57;;;;;;;;;;754715;185;615049;-59
2022/02/24 13:21:00;;;;;;;4.50;2.70;;;;;;;;;;751743;184;631182;-59
2022/02/24 13:23:26;;;;;;;6.00;2.60;;;;;;;;;;751567;184;617173;-59
2022/02/24 13:25:55;;;;;;;5.80;2.70;;;;;;;;;;746789;184;635884;-59
2022/02/24 13:28:20;;;;;;;5.50;3.60;;;;;;;;;;758886;183;644094;-60
2022/02/24 13:30:46;;;;;;;10.00;3.60;;;;;;;;;;756254;183;614782;-59
2022/02/24 13:33:12;;;;;;;9.52;3.10;;;;;;;;;;758592;184;622699;-59
2022/02/24 13:35:38;;;;;;;13.18;3.80;;;;;;;;;;755188;184;623081;-58
2022/02/24 13:38:06;;;;;;;8.07;4.10;;;;;;;;;;762381;183;888935;-59
2022/02/24 13:40:31;;;;;;;12.23;3.90;;;;;;;;;;750321;183;615842;-59
2022/02/24 13:42:59;;;;;;;7.83;4.10;;;;;;;;;;762540;184;634170;-59
2022/02/24 13:45:25;;;;;;;7.23;2.83;;;;;;;;;;758409;184;619149;-59
2022/02/24 13:47:57;;;;;;;7.53;4.13;;;;;;;;;;750001;184;633862;-59
2022/02/24 13:50:29;;;;;;;5.77;2.90;;;;;;;;;;751458;184;625089;-59
2022/02/24 13:52:54;;;;;;;6.87;3.87;;;;;;;;;;752080;185;623416;-59
2022/02/24 13:55:20;;;;;;;9.13;3.90;;;;;;;;;;759010;184;614988;-59
2022/02/24 13:57:50;;;;;;;7.10;3.70;;;;;;;;;;762291;184;638611;-59
2022/02/24 14:00:16;;;;;;;7.20;3.10;;;;;;;;;;754054;184;627741;-59
2022/02/24 14:02:42;;;;;;;9.30;3.37;;;;;;;;;;748742;184;772987;-59
2022/02/24 14:05:08;;;;;;;5.10;2.70;;;;;;;;;;763765;181;627186;-59
2022/02/24 14:07:34;;;;;;;9.70;3.87;;;;;;;;;;746150;184;616990;-59
2022/02/24 14:10:00;;;;;;;7.53;3.00;;;;;;;;;;760712;184;625775;-58
2022/02/24 14:12:25;;;;;;;6.50;3.10;;;;;;;;;;767932;184;617263;-59